Council Blfs, Iowa
Current Conditions -  °F | °C
As of 2:52 PM on Friday 24 Oct 2014 (Local Time) from KOMA Reporting Station
Overcast Overcast  
Wind Chill: 73°   Ceiling: 25000
Heat Index: 73°   Visibility: 10mi
Dew Point: 58°   Wind: 6mph
Humidity: 59%   Direction: NA
Pressure: 29.9"   Gusts: NA
Location:  41.2617°N, 95.8608°W
Report Text: KOMA 241952Z VRB05KT 10SM OVC250 23/14 A2990 RMK AO2 SLP120 T02280144
Loading
Personal Weather Stations






























Interactive Weather Map
Tropical Storm Tracking
New forecast layout! Learn more

10-Day Weather Forecast

Advertisements
Track Severe Weather on mobile